Time;durP1;ratioP1;P1;durP2;ratioP2;P2;SDS_P1;SDS_P2;PMS_P1;PMS_P2;Temp;Humidity;BMP_temperature;BMP_pressure;BME280_temperature;BME280_humidity;BME280_pressure;Samples;Min_cycle;Max_cycle;Signal;HPM_P1;HPM_P2
2023/12/23 00:00:17;;;;;;;8.40;1.05;;;5.00;99.90;;;;;;5051494;28;20047;-48
2023/12/23 00:02:43;;;;;;;7.15;1.27;;;2.70;99.90;;;;;;5051811;28;20120;-50
2023/12/23 00:05:09;;;;;;;8.20;1.25;;;3.00;99.90;;;;;;5051762;28;20120;-50
2023/12/23 00:07:35;;;;;;;12.90;1.58;;;5.80;99.90;;;;;;5052678;28;20388;-50
2023/12/23 00:10:04;;;;;;;12.05;1.65;;;5.40;99.90;;;;;;5055729;28;20496;-47
2023/12/23 00:12:30;;;;;;;9.20;1.42;;;3.20;99.90;;;;;;5055688;28;20045;-49
2023/12/23 00:14:56;;;;;;;11.32;2.00;;;2.90;99.90;;;;;;5055615;28;20048;-47
2023/12/23 00:17:22;;;;;;;14.15;2.33;;;2.40;99.90;;;;;;5055901;28;20045;-51
2023/12/23 00:19:47;;;;;;;10.70;1.73;;;3.50;99.90;;;;;;5055473;28;20060;-50
2023/12/23 00:22:13;;;;;;;10.80;1.70;;;3.10;99.90;;;;;;5055592;28;20120;-49
2023/12/23 00:24:39;;;;;;;10.77;1.77;;;2.80;99.90;;;;;;5055121;28;20069;-47
2023/12/23 00:27:05;;;;;;;14.82;2.42;;;2.40;99.90;;;;;;5055115;28;20045;-48
2023/12/23 00:29:31;;;;;;;16.33;2.22;;;6.10;99.90;;;;;;5055562;28;20409;-47
2023/12/23 00:31:57;;;;;;;11.38;1.90;;;3.30;99.90;;;;;;5054011;28;20055;-51
2023/12/23 00:34:22;;;;;;;12.35;2.10;;;5.20;99.90;;;;;;5053760;28;20044;-46
2023/12/23 00:36:49;;;;;;;7.97;1.13;;;3.30;99.90;;;;;;5055012;28;20055;-47
2023/12/23 00:39:15;;;;;;;14.98;2.35;;;3.30;99.90;;;;;;5053607;28;20551;-48
2023/12/23 00:41:41;;;;;;;16.65;2.42;;;4.70;99.90;;;;;;5054924;28;20474;-46
2023/12/23 00:44:07;;;;;;;17.83;3.35;;;6.20;99.90;;;;;;5054718;28;20064;-47
2023/12/23 00:46:34;;;;;;;17.45;2.80;;;5.40;99.90;;;;;;5053339;28;20432;-46
2023/12/23 00:48:59;;;;;;;16.42;2.60;;;6.00;99.90;;;;;;5054960;28;20041;-50
2023/12/23 00:51:25;;;;;;;13.75;2.53;;;3.10;99.90;;;;;;5055113;28;20095;-45
2023/12/23 00:53:50;;;;;;;16.58;2.30;;;5.10;99.90;;;;;;5054945;28;20041;-46
2023/12/23 00:56:23;;;;;;;23.20;3.20;;;3.20;99.90;;;;;;5054535;28;20045;-46
2023/12/23 00:58:49;;;;;;;16.83;2.25;;;3.20;99.90;;;;;;5054626;28;20040;-46
2023/12/23 01:01:15;;;;;;;22.80;3.17;;;4.60;99.90;;;;;;5054813;28;20044;-46
2023/12/23 01:03:41;;;;;;;15.93;2.10;;;5.60;99.90;;;;;;5054638;28;20037;-50
2023/12/23 01:06:06;;;;;;;22.55;2.40;;;6.50;99.90;;;;;;5054672;28;20041;-46
2023/12/23 01:08:32;;;;;;;19.38;2.85;;;4.60;99.90;;;;;;5054523;28;20497;-46
2023/12/23 01:10:58;;;;;;;17.98;3.88;;;3.70;99.90;;;;;;5053183;28;20144;-46
2023/12/23 01:13:23;;;;;;;13.25;3.15;;;4.40;99.90;;;;;;5053445;28;20037;-46
2023/12/23 01:15:49;;;;;;;29.08;5.40;;;3.60;99.90;;;;;;5054657;28;20107;-50
2023/12/23 01:18:16;;;;;;;20.55;1.95;;;4.30;99.90;;;;;;5054303;28;20541;-50
2023/12/23 01:20:42;;;;;;;19.52;2.92;;;6.60;99.90;;;;;;5052942;28;20084;-50
2023/12/23 01:23:11;;;;;;;15.85;3.97;;;4.20;99.90;;;;;;5054146;28;20046;-48
2023/12/23 01:25:36;;;;;;;15.82;2.67;;;6.60;99.90;;;;;;5054397;28;20098;-48
2023/12/23 01:28:04;;;;;;;16.27;3.15;;;4.30;99.90;;;;;;5053138;28;20493;-48
2023/12/23 01:30:33;;;;;;;16.77;1.95;;;5.60;99.90;;;;;;5054389;28;20175;-50
2023/12/23 01:32:59;;;;;;;12.63;1.60;;;4.60;99.90;;;;;;5053937;28;20052;-50
2023/12/23 01:35:25;;;;;;;10.82;2.13;;;4.40;99.90;;;;;;5054307;28;20045;-49
2023/12/23 01:37:51;;;;;;;13.52;2.75;;;5.70;99.90;;;;;;5052978;28;20048;-47
2023/12/23 01:40:17;;;;;;;11.95;1.80;;;6.40;99.90;;;;;;5019495;28;20389;-47
2023/12/23 01:42:43;;;;;;;15.40;2.63;;;4.60;99.90;;;;;;5054137;28;20112;-48
2023/12/23 01:45:10;;;;;;;24.95;3.42;;;5.40;99.90;;;;;;5053581;28;20067;-46
2023/12/23 01:47:43;;;;;;;17.17;2.38;;;6.00;99.90;;;;;;5053726;28;20067;-46
2023/12/23 01:50:10;;;;;;;18.00;2.50;;;4.80;99.90;;;;;;5053755;28;20040;-48
2023/12/23 01:52:38;;;;;;;13.40;2.42;;;4.60;99.90;;;;;;5053619;28;20517;-47
2023/12/23 01:55:05;;;;;;;16.08;1.65;;;6.50;99.90;;;;;;5053643;28;20036;-47
2023/12/23 01:57:32;;;;;;;12.43;1.90;;;6.10;99.90;;;;;;5052415;28;20044;-47
2023/12/23 01:59:57;;;;;;;9.90;1.75;;;4.80;99.90;;;;;;5053570;28;20040;-47
2023/12/23 02:02:23;;;;;;;8.77;1.55;;;4.80;99.90;;;;;;5052191;28;20044;-50
2023/12/23 02:04:49;;;;;;;10.65;1.40;;;5.00;99.90;;;;;;5053656;28;20041;-51
2023/12/23 02:07:15;;;;;;;11.15;1.80;;;6.30;99.90;;;;;;5053476;28;20128;-51
2023/12/23 02:09:41;;;;;;;9.05;1.20;;;4.90;99.90;;;;;;5053205;28;20115;-47
2023/12/23 02:12:26;;;;;;;11.95;2.25;;;6.40;99.90;;;;;;5053268;28;20065;-46
2023/12/23 02:15:09;;;;;;;9.00;1.38;;;4.80;99.90;;;;;;5051709;28;20102;-45
2023/12/23 02:17:37;;;;;;;7.32;1.10;;;4.80;99.90;;;;;;5053236;28;20075;-46
2023/12/23 02:20:03;;;;;;;12.45;2.15;;;6.30;99.90;;;;;;5051644;28;20771;-45
2023/12/23 02:22:29;;;;;;;12.02;1.38;;;4.30;99.90;;;;;;5053021;28;20112;-46
2023/12/23 02:24:55;;;;;;;10.27;1.35;;;5.10;99.90;;;;;;5053192;28;20450;-46
2023/12/23 02:27:40;;;;;;;13.35;1.92;;;6.00;99.90;;;;;;5052802;28;20056;-46
2023/12/23 02:30:11;;;;;;;13.20;1.55;;;6.50;99.90;;;;;;5052689;28;20044;-45
2023/12/23 02:32:38;;;;;;;8.05;1.33;;;4.10;99.90;;;;;;5052920;28;20037;-47
2023/12/23 02:35:05;;;;;;;9.60;1.88;;;5.10;99.90;;;;;;5069712;28;20114;-47
2023/12/23 02:37:31;;;;;;;11.63;1.52;;;5.20;99.90;;;;;;5072776;28;20122;-46
2023/12/23 02:39:56;;;;;;;11.90;1.80;;;6.80;99.90;;;;;;5071594;28;20120;-46
2023/12/23 02:42:22;;;;;;;13.52;1.90;;;4.10;99.90;;;;;;5072543;28;20102;-50
2023/12/23 02:44:48;;;;;;;12.82;1.90;;;6.80;99.90;;;;;;5072547;28;20049;-48
2023/12/23 02:47:13;;;;;;;12.65;1.50;;;6.70;99.90;;;;;;5072649;28;20056;-48
2023/12/23 02:49:39;;;;;;;12.00;1.75;;;6.70;99.90;;;;;;5072560;28;20573;-49
2023/12/23 02:52:05;;;;;;;11.07;1.50;;;4.00;99.90;;;;;;5072654;28;20575;-49
2023/12/23 02:54:30;;;;;;;11.77;1.25;;;5.80;99.90;;;;;;5072811;28;20049;-47
2023/12/23 02:56:56;;;;;;;11.68;1.92;;;5.30;99.90;;;;;;5072437;28;20036;-47
2023/12/23 02:59:21;;;;;;;11.30;1.30;;;4.00;99.90;;;;;;5072686;28;20050;-46
2023/12/23 03:01:47;;;;;;;10.57;1.77;;;7.00;99.90;;;;;;5072868;28;20403;-48
2023/12/23 03:04:13;;;;;;;15.02;1.73;;;3.50;99.90;;;;;;5072176;28;20146;-46
2023/12/23 03:06:39;;;;;;;15.35;1.73;;;6.70;99.90;;;;;;5070910;28;20082;-47
2023/12/23 03:09:04;;;;;;;14.82;1.63;;;7.00;99.90;;;;;;5070884;28;20040;-46
2023/12/23 03:11:30;;;;;;;14.80;1.65;;;6.90;99.90;;;;;;5071030;28;20389;-46
2023/12/23 03:13:55;;;;;;;10.00;1.95;;;7.10;99.90;;;;;;5072066;28;20479;-47
2023/12/23 03:16:21;;;;;;;11.57;1.85;;;7.00;99.90;;;;;;5072208;28;20497;-46
2023/12/23 03:18:47;;;;;;;9.18;1.15;;;6.20;99.90;;;;;;5071965;28;20053;-46
2023/12/23 03:21:12;;;;;;;11.70;2.00;;;6.90;99.90;;;;;;5071013;28;20040;-46
2023/12/23 03:23:38;;;;;;;9.55;1.33;;;6.60;99.90;;;;;;5072109;28;20055;-46
2023/12/23 03:26:05;;;;;;;9.63;1.02;;;7.10;99.90;;;;;;5071690;28;20063;-46
2023/12/23 03:28:31;;;;;;;14.35;1.63;;;7.10;99.90;;;;;;5071901;28;20091;-46
2023/12/23 03:30:56;;;;;;;13.00;1.58;;;4.00;99.90;;;;;;5072159;28;20036;-49
2023/12/23 03:33:22;;;;;;;9.57;1.20;;;2.70;99.90;;;;;;5072012;28;20123;-47
2023/12/23 03:35:48;;;;;;;10.68;1.20;;;2.80;99.90;;;;;;5072015;28;20125;-46
2023/12/23 03:38:13;;;;;;;11.35;1.60;;;6.20;99.90;;;;;;5071675;28;20040;-51
2023/12/23 03:40:39;;;;;;;6.07;0.88;;;3.40;99.90;;;;;;5070294;28;20046;-49
2023/12/23 03:43:05;;;;;;;13.30;1.52;;;7.10;99.90;;;;;;5070611;28;20040;-51
2023/12/23 03:45:30;;;;;;;10.85;1.05;;;2.70;99.90;;;;;;5071728;28;20048;-47
2023/12/23 03:47:56;;;;;;;6.18;0.98;;;7.20;99.90;;;;;;5053653;28;20468;-47
2023/12/23 03:50:22;;;;;;;10.82;1.30;;;2.80;99.90;;;;;;5071558;28;20042;-47
2023/12/23 03:52:47;;;;;;;6.38;0.88;;;4.60;99.90;;;;;;5071565;28;20115;-51
2023/12/23 03:55:13;;;;;;;5.40;0.90;;;7.10;99.90;;;;;;5071709;28;20032;-50
2023/12/23 03:57:39;;;;;;;6.18;1.80;;;4.50;99.90;;;;;;5071979;28;20044;-50
2023/12/23 04:00:05;;;;;;;9.63;0.95;;;6.50;99.90;;;;;;5070348;28;20048;-49
2023/12/23 04:02:31;;;;;;;7.30;1.10;;;7.10;99.90;;;;;;5071395;28;20068;-47
2023/12/23 04:04:56;;;;;;;5.57;1.02;;;4.80;99.90;;;;;;5071474;28;20080;-49
2023/12/23 04:07:22;;;;;;;8.15;1.05;;;3.50;99.90;;;;;;5071314;28;20037;-50
2023/12/23 04:09:48;;;;;;;9.30;1.23;;;4.60;99.90;;;;;;5071427;28;20028;-47
2023/12/23 04:12:14;;;;;;;9.68;1.20;;;7.30;99.90;;;;;;5071368;28;20111;-49
2023/12/23 04:14:40;;;;;;;6.38;1.08;;;6.70;99.90;;;;;;5071408;28;20119;-51
2023/12/23 04:17:07;;;;;;;9.48;0.90;;;5.50;99.90;;;;;;5070023;28;20064;-47
2023/12/23 04:19:32;;;;;;;4.82;0.90;;;7.10;99.90;;;;;;5071491;28;20041;-48
2023/12/23 04:21:58;;;;;;;4.35;0.80;;;3.10;99.90;;;;;;5071480;28;20581;-47
2023/12/23 04:24:26;;;;;;;4.90;1.05;;;5.70;99.90;;;;;;5071298;28;20040;-46
2023/12/23 04:26:52;;;;;;;7.95;1.00;;;3.40;99.90;;;;;;5071211;28;20385;-47
2023/12/23 04:29:18;;;;;;;9.95;0.90;;;6.90;99.90;;;;;;5071460;28;20178;-46
2023/12/23 04:31:43;;;;;;;5.90;0.98;;;3.60;99.90;;;;;;5071394;28;20111;-48
2023/12/23 04:34:10;;;;;;;5.00;0.85;;;7.40;99.90;;;;;;5071552;28;20083;-47
2023/12/23 04:36:36;;;;;;;5.80;0.98;;;7.40;99.90;;;;;;5071119;28;20089;-49
2023/12/23 04:39:05;;;;;;;10.18;1.10;;;6.70;99.90;;;;;;5070216;28;20045;-45
2023/12/23 04:41:31;;;;;;;5.72;0.80;;;6.90;99.90;;;;;;5071219;28;20045;-46
2023/12/23 04:43:57;;;;;;;6.18;0.70;;;6.00;99.90;;;;;;5071172;28;20048;-46
2023/12/23 04:46:23;;;;;;;6.93;1.00;;;6.30;99.90;;;;;;5071168;28;20449;-46
2023/12/23 04:48:50;;;;;;;9.60;1.05;;;7.40;99.90;;;;;;5071149;28;20044;-45
2023/12/23 04:51:15;;;;;;;8.95;0.93;;;2.90;99.90;;;;;;5071087;28;20863;-45
2023/12/23 04:53:42;;;;;;;10.68;1.20;;;2.90;99.90;;;;;;5072150;28;20642;-45
2023/12/23 04:56:08;;;;;;;8.98;1.40;;;3.60;99.90;;;;;;5074851;28;20108;-50
2023/12/23 04:58:35;;;;;;;7.18;1.00;;;2.80;99.90;;;;;;5075025;28;20049;-47
2023/12/23 05:01:01;;;;;;;8.38;0.93;;;2.70;99.90;;;;;;5074685;28;20047;-46
2023/12/23 05:03:31;;;;;;;12.50;0.93;;;3.70;99.90;;;;;;5074958;28;20041;-46
2023/12/23 05:05:57;;;;;;;10.32;1.30;;;7.60;99.90;;;;;;5074498;28;20052;-48
2023/12/23 05:08:22;;;;;;;7.63;0.88;;;3.30;99.90;;;;;;5074387;28;20127;-45
2023/12/23 05:10:48;;;;;;;5.47;0.80;;;4.50;99.90;;;;;;5073176;28;20154;-46
2023/12/23 05:13:14;;;;;;;8.77;2.13;;;7.00;99.90;;;;;;5074665;28;20039;-49
2023/12/23 05:15:40;;;;;;;6.80;0.93;;;4.00;99.90;;;;;;5074290;28;20493;-48
2023/12/23 05:18:05;;;;;;;5.95;1.00;;;3.10;99.90;;;;;;5072784;28;20170;-46
2023/12/23 05:20:31;;;;;;;7.45;1.00;;;7.60;99.90;;;;;;5074264;28;20072;-46
2023/12/23 05:22:57;;;;;;;5.60;1.02;;;5.70;99.90;;;;;;5074255;28;20098;-50
2023/12/23 05:25:22;;;;;;;11.25;1.33;;;7.30;99.90;;;;;;5074080;28;20037;-51
2023/12/23 05:27:48;;;;;;;9.52;1.25;;;3.30;99.90;;;;;;5074432;28;20037;-47
2023/12/23 05:30:14;;;;;;;8.73;1.33;;;7.50;99.90;;;;;;5074511;28;20036;-51
2023/12/23 05:32:40;;;;;;;13.60;1.40;;;7.50;99.90;;;;;;5074413;28;20032;-47
2023/12/23 05:35:06;;;;;;;6.85;1.20;;;7.40;99.90;;;;;;5074100;28;20040;-46
2023/12/23 05:37:33;;;;;;;5.03;1.13;;;7.60;99.90;;;;;;5074224;28;20131;-49
2023/12/23 05:39:59;;;;;;;6.97;1.42;;;6.00;99.90;;;;;;5074169;28;20041;-47
2023/12/23 05:42:25;;;;;;;4.80;1.00;;;4.10;99.90;;;;;;5074031;28;20560;-46
2023/12/23 05:44:51;;;;;;;8.55;1.25;;;3.80;99.90;;;;;;5073885;28;20049;-51
2023/12/23 05:47:17;;;;;;;8.63;1.20;;;3.20;99.90;;;;;;5073734;28;20508;-47
2023/12/23 05:49:42;;;;;;;5.18;1.05;;;6.80;99.90;;;;;;5073596;28;20044;-48
2023/12/23 05:52:08;;;;;;;5.82;0.90;;;7.20;99.90;;;;;;5073724;28;20102;-46
2023/12/23 05:54:34;;;;;;;5.32;1.00;;;6.80;99.90;;;;;;5073875;28;20037;-46
2023/12/23 05:56:59;;;;;;;4.32;0.82;;;7.60;99.90;;;;;;5073520;28;20044;-49
2023/12/23 05:59:25;;;;;;;4.53;0.80;;;2.90;99.90;;;;;;5073939;28;20048;-47
2023/12/23 06:01:52;;;;;;;5.53;0.88;;;6.90;99.90;;;;;;5073651;28;20089;-48
2023/12/23 06:04:17;;;;;;;5.45;1.17;;;5.90;99.90;;;;;;5072393;28;20393;-47
2023/12/23 06:06:43;;;;;;;7.93;1.38;;;7.50;99.90;;;;;;5072930;28;20060;-48
2023/12/23 06:09:09;;;;;;;5.72;1.10;;;4.30;99.90;;;;;;5073378;28;20043;-49
2023/12/23 06:11:35;;;;;;;5.68;0.95;;;2.90;99.90;;;;;;5073544;28;20028;-46
2023/12/23 06:14:01;;;;;;;8.77;1.13;;;7.30;99.90;;;;;;5073300;28;20508;-45
2023/12/23 06:16:26;;;;;;;10.55;1.30;;;4.80;99.90;;;;;;5073378;28;20101;-47
2023/12/23 06:18:52;;;;;;;6.63;1.05;;;3.20;99.90;;;;;;5073165;28;20539;-46
2023/12/23 06:21:18;;;;;;;6.45;1.20;;;2.90;99.90;;;;;;5073275;28;20048;-46
2023/12/23 06:23:43;;;;;;;4.57;1.55;;;2.90;99.90;;;;;;5073400;28;20040;-49
2023/12/23 06:26:12;;;;;;;6.97;1.00;;;7.30;99.90;;;;;;5072973;28;20143;-46
2023/12/23 06:28:38;;;;;;;9.30;1.60;;;6.60;99.90;;;;;;5073241;28;20106;-47
2023/12/23 06:31:03;;;;;;;6.38;1.20;;;7.00;99.90;;;;;;5073185;28;20098;-47
2023/12/23 06:33:29;;;;;;;7.57;1.30;;;3.20;99.90;;;;;;5072968;28;20089;-47
2023/12/23 06:35:55;;;;;;;4.85;1.00;;;3.90;99.90;;;;;;5073161;28;20149;-46
2023/12/23 06:38:20;;;;;;;5.93;1.10;;;3.20;99.90;;;;;;5073134;28;20488;-46
2023/12/23 06:40:46;;;;;;;4.80;1.00;;;7.20;99.90;;;;;;5071661;28;20040;-47
2023/12/23 06:43:12;;;;;;;4.88;0.98;;;7.20;99.90;;;;;;5071506;28;20040;-46
2023/12/23 06:45:37;;;;;;;4.07;1.23;;;2.60;99.90;;;;;;5072955;28;20056;-47
2023/12/23 06:48:03;;;;;;;5.22;0.77;;;3.80;99.90;;;;;;5072549;28;20469;-46
2023/12/23 06:50:29;;;;;;;4.28;0.70;;;3.30;99.90;;;;;;5071693;28;20118;-46
2023/12/23 06:52:55;;;;;;;0.93;0.55;;;7.70;99.90;;;;;;5072853;28;20040;-46
2023/12/23 06:55:20;;;;;;;2.42;0.68;;;5.80;99.90;;;;;;5072801;28;20479;-48
2023/12/23 06:57:46;;;;;;;2.45;0.40;;;7.60;99.90;;;;;;5072834;28;20036;-47
2023/12/23 07:00:13;;;;;;;5.88;2.58;;;3.40;99.90;;;;;;5071178;28;20098;-50
2023/12/23 07:02:39;;;;;;;4.43;1.20;;;4.00;99.90;;;;;;5072278;28;20143;-47
2023/12/23 07:05:05;;;;;;;6.05;2.50;;;2.80;99.90;;;;;;5072021;28;20036;-47
2023/12/23 07:07:30;;;;;;;4.55;1.92;;;7.70;99.90;;;;;;5072198;28;20455;-46
2023/12/23 07:09:58;;;;;;;4.68;1.40;;;2.70;99.90;;;;;;5072378;28;20115;-46
2023/12/23 07:12:24;;;;;;;11.93;7.22;;;3.00;99.90;;;;;;5072503;28;20120;-46
2023/12/23 07:14:49;;;;;;;10.85;6.10;;;2.40;99.90;;;;;;5072257;28;20530;-46
2023/12/23 07:17:15;;;;;;;10.20;3.45;;;7.10;99.90;;;;;;5072299;28;20044;-46
2023/12/23 07:19:41;;;;;;;6.63;2.58;;;6.10;99.90;;;;;;5072050;28;20040;-49
2023/12/23 07:22:06;;;;;;;6.55;1.92;;;4.80;99.90;;;;;;5071913;28;20052;-48
2023/12/23 07:24:32;;;;;;;5.85;2.35;;;2.60;99.90;;;;;;5072453;28;20075;-50
2023/12/23 07:26:58;;;;;;;5.65;1.92;;;2.70;99.90;;;;;;5072233;28;20040;-49
2023/12/23 07:29:25;;;;;;;5.40;1.83;;;2.80;99.90;;;;;;5072392;28;20040;-48
2023/12/23 07:31:50;;;;;;;4.18;2.00;;;4.10;99.90;;;;;;5072163;28;20113;-48
2023/12/23 07:34:16;;;;;;;6.43;1.83;;;2.90;99.90;;;;;;5072265;28;20036;-47
2023/12/23 07:36:42;;;;;;;4.65;1.80;;;3.20;99.90;;;;;;5072283;28;20119;-47
2023/12/23 07:39:07;;;;;;;3.58;1.25;;;7.60;99.90;;;;;;5071819;28;20040;-49
2023/12/23 07:41:33;;;;;;;8.88;2.53;;;7.50;99.90;;;;;;5071178;28;20079;-49
2023/12/23 07:43:58;;;;;;;6.88;1.58;;;7.60;99.90;;;;;;5069870;28;20060;-45
2023/12/23 07:46:24;;;;;;;7.13;2.35;;;7.70;99.90;;;;;;5070948;28;20061;-48
2023/12/23 07:48:50;;;;;;;9.27;4.20;;;2.80;99.90;;;;;;5071222;28;20086;-49
2023/12/23 07:51:19;;;;;;;6.47;1.35;;;7.60;99.90;;;;;;5071031;28;20044;-50
2023/12/23 07:53:44;;;;;;;3.90;1.13;;;4.00;99.90;;;;;;5069723;28;20040;-46
2023/12/23 07:56:10;;;;;;;5.53;1.23;;;7.60;99.90;;;;;;5070813;28;20051;-46
2023/12/23 07:58:36;;;;;;;4.90;1.35;;;2.40;99.90;;;;;;5071166;28;20044;-49
2023/12/23 08:01:01;;;;;;;9.77;1.75;;;7.70;99.90;;;;;;5070887;28;20040;-47
2023/12/23 08:03:27;;;;;;;3.65;1.15;;;7.40;99.90;;;;;;5071272;28;20044;-46
2023/12/23 08:05:52;;;;;;;2.97;1.02;;;5.50;99.90;;;;;;5071125;28;20374;-49
2023/12/23 08:08:18;;;;;;;2.33;0.98;;;2.70;99.90;;;;;;5069760;28;20354;-51
2023/12/23 08:10:44;;;;;;;3.33;1.08;;;3.20;99.90;;;;;;5071126;28;20437;-47
2023/12/23 08:13:09;;;;;;;3.15;1.00;;;2.70;99.90;;;;;;5071006;28;20040;-47
2023/12/23 08:15:35;;;;;;;3.55;1.08;;;4.80;99.90;;;;;;5071207;28;20040;-46
2023/12/23 08:18:01;;;;;;;3.15;0.80;;;6.40;99.90;;;;;;5071111;28;20082;-46
2023/12/23 08:20:28;;;;;;;2.95;1.15;;;7.60;99.90;;;;;;5071072;28;20391;-49
2023/12/23 08:22:53;;;;;;;2.80;0.90;;;6.40;99.90;;;;;;5070867;28;20076;-48
2023/12/23 08:25:19;;;;;;;2.88;0.93;;;2.90;99.90;;;;;;5070904;28;20079;-49
2023/12/23 08:27:45;;;;;;;3.40;0.80;;;6.50;99.90;;;;;;5070791;28;20037;-48
2023/12/23 08:30:11;;;;;;;2.55;1.05;;;2.90;99.90;;;;;;5074334;28;20045;-47
2023/12/23 08:32:37;;;;;;;4.38;1.20;;;7.60;99.90;;;;;;5074914;28;20098;-48
2023/12/23 08:35:03;;;;;;;6.53;2.25;;;2.70;99.90;;;;;;5073617;28;20037;-47
2023/12/23 08:37:28;;;;;;;5.20;1.33;;;2.70;99.90;;;;;;5074791;28;20040;-48
2023/12/23 08:39:54;;;;;;;3.05;1.00;;;3.40;99.90;;;;;;5074822;28;20056;-50
2023/12/23 08:42:20;;;;;;;3.13;1.10;;;3.00;99.90;;;;;;5074681;28;20040;-48
2023/12/23 08:44:47;;;;;;;3.10;1.00;;;7.40;99.90;;;;;;5074488;28;20465;-48
2023/12/23 08:47:13;;;;;;;1.23;0.50;;;7.30;99.90;;;;;;5074633;28;20045;-48
2023/12/23 08:49:39;;;;;;;3.53;1.02;;;6.50;99.90;;;;;;5074478;28;20039;-47
2023/12/23 08:52:06;;;;;;;4.25;1.00;;;7.70;99.90;;;;;;5074271;28;20040;-47
2023/12/23 08:54:32;;;;;;;4.30;1.10;;;4.40;99.90;;;;;;5056378;28;20037;-48
2023/12/23 08:56:58;;;;;;;4.35;1.25;;;3.10;99.90;;;;;;5064063;28;20045;-47
2023/12/23 08:59:23;;;;;;;4.32;1.40;;;2.70;99.90;;;;;;5059234;28;20116;-46
2023/12/23 09:01:49;;;;;;;4.15;1.35;;;5.30;99.90;;;;;;5061447;28;20400;-49
2023/12/23 09:04:16;;;;;;;3.35;1.10;;;3.80;99.90;;;;;;5064392;28;20044;-50
2023/12/23 09:06:42;;;;;;;4.60;1.27;;;7.60;99.90;;;;;;5062340;28;20045;-49
2023/12/23 09:09:07;;;;;;;4.60;0.98;;;3.00;99.90;;;;;;5053160;28;20095;-48
2023/12/23 09:11:33;;;;;;;3.75;1.27;;;3.00;99.90;;;;;;5054117;28;20063;-48
2023/12/23 09:13:59;;;;;;;2.75;0.90;;;3.30;99.90;;;;;;5054011;28;20047;-47
2023/12/23 09:16:24;;;;;;;2.78;1.25;;;4.40;99.90;;;;;;5053991;28;20055;-51
2023/12/23 09:18:50;;;;;;;3.30;0.95;;;5.00;99.90;;;;;;5054077;28;20052;-45
2023/12/23 09:21:16;;;;;;;2.38;0.70;;;4.20;99.90;;;;;;5053939;28;20446;-48
2023/12/23 09:23:41;;;;;;;4.00;0.90;;;3.00;99.90;;;;;;5052303;28;20521;-48
2023/12/23 09:26:07;;;;;;;1.95;0.63;;;7.50;99.90;;;;;;5051818;28;20049;-45
2023/12/23 09:28:33;;;;;;;3.38;0.70;;;3.60;99.90;;;;;;5050729;28;20132;-45
2023/12/23 09:30:58;;;;;;;2.90;0.60;;;3.10;99.90;;;;;;5052453;28;20111;-46
2023/12/23 09:33:24;;;;;;;4.35;1.38;;;3.10;99.90;;;;;;5051026;28;20045;-46
2023/12/23 09:35:50;;;;;;;4.40;1.20;;;7.50;99.90;;;;;;5053095;28;20048;-45
2023/12/23 09:38:15;;;;;;;3.03;1.10;;;3.50;99.90;;;;;;5052391;28;20041;-45
2023/12/23 09:40:41;;;;;;;4.00;0.90;;;4.00;99.90;;;;;;5052179;28;20037;-47
2023/12/23 09:43:08;;;;;;;1.50;0.60;;;7.60;99.90;;;;;;5053135;28;20080;-46
2023/12/23 09:45:36;;;;;;;3.33;0.95;;;4.30;99.90;;;;;;5053043;28;20057;-45
2023/12/23 09:48:02;;;;;;;1.92;0.70;;;7.50;99.90;;;;;;5053435;28;20585;-50
2023/12/23 09:50:28;;;;;;;1.75;0.70;;;5.30;99.90;;;;;;5053425;28;20390;-49
2023/12/23 09:52:58;;;;;;;1.65;0.60;;;7.20;99.90;;;;;;5053286;28;20044;-46
2023/12/23 09:55:25;;;;;;;2.60;0.80;;;3.30;99.90;;;;;;5053105;28;20508;-46
2023/12/23 09:57:51;;;;;;;4.00;1.00;;;6.20;99.90;;;;;;5051751;28;20148;-47
2023/12/23 10:00:17;;;;;;;2.25;0.82;;;3.60;99.90;;;;;;5053372;28;20831;-47
2023/12/23 10:02:42;;;;;;;3.75;0.90;;;7.60;99.90;;;;;;5053142;28;20134;-48
2023/12/23 10:05:09;;;;;;;2.88;1.10;;;3.10;99.90;;;;;;5052957;28;20536;-47
2023/12/23 10:07:34;;;;;;;3.03;1.05;;;6.50;99.90;;;;;;5052735;28;20132;-46
2023/12/23 10:10:00;;;;;;;6.22;1.20;;;7.10;99.90;;;;;;5052907;28;20140;-47
2023/12/23 10:12:26;;;;;;;3.60;1.15;;;3.40;99.90;;;;;;5052927;28;20048;-47
2023/12/23 10:14:52;;;;;;;6.78;1.30;;;3.90;99.90;;;;;;5053108;28;20107;-48
2023/12/23 10:17:18;;;;;;;3.63;1.20;;;3.30;99.90;;;;;;5052760;28;20436;-47
2023/12/23 10:19:46;;;;;;;4.38;1.20;;;7.60;99.90;;;;;;5052953;28;20045;-50
2023/12/23 10:22:12;;;;;;;3.70;1.20;;;5.00;99.90;;;;;;5052758;28;20043;-47
2023/12/23 10:24:37;;;;;;;2.90;1.20;;;7.60;99.90;;;;;;5052490;28;20049;-50
2023/12/23 10:27:04;;;;;;;3.67;1.02;;;3.40;99.90;;;;;;5051077;28;20037;-46
2023/12/23 10:29:33;;;;;;;3.80;1.30;;;3.20;99.90;;;;;;5052511;28;20606;-46
2023/12/23 10:32:04;;;;;;;5.45;1.20;;;7.70;99.90;;;;;;5052142;28;20045;-49
2023/12/23 10:34:44;;;;;;;3.75;1.17;;;3.20;99.90;;;;;;5052224;28;20047;-48
2023/12/23 10:37:11;;;;;;;3.47;1.20;;;4.50;99.90;;;;;;5051210;28;20037;-46
2023/12/23 10:39:45;;;;;;;4.05;1.10;;;7.70;99.90;;;;;;5052291;28;20044;-46
2023/12/23 10:42:20;;;;;;;3.80;1.20;;;4.90;99.90;;;;;;5052555;28;20049;-47
2023/12/23 10:44:46;;;;;;;3.63;1.10;;;7.80;99.90;;;;;;5054346;28;20068;-47
2023/12/23 10:47:14;;;;;;;4.18;1.20;;;4.70;99.90;;;;;;5062300;28;20124;-48
2023/12/23 10:49:40;;;;;;;3.92;1.20;;;7.80;99.90;;;;;;5063052;28;20044;-51
2023/12/23 10:52:07;;;;;;;3.13;1.00;;;3.40;99.90;;;;;;5069850;28;20124;-49
2023/12/23 10:54:35;;;;;;;2.83;1.00;;;7.20;99.90;;;;;;5072261;28;20489;-48
2023/12/23 10:57:01;;;;;;;5.05;2.20;;;3.60;99.90;;;;;;5073016;28;20076;-46
2023/12/23 10:59:27;;;;;;;6.93;2.65;;;7.70;99.90;;;;;;5072794;28;20044;-46
2023/12/23 11:01:56;;;;;;;6.45;1.73;;;3.50;99.90;;;;;;5072988;28;20374;-48
2023/12/23 11:04:25;;;;;;;5.80;1.98;;;3.60;99.90;;;;;;5072844;28;20373;-46
2023/12/23 11:06:52;;;;;;;4.40;1.40;;;5.20;99.90;;;;;;5072629;28;20048;-51
2023/12/23 11:09:20;;;;;;;4.38;1.38;;;7.00;99.90;;;;;;5072743;28;20050;-47
2023/12/23 11:11:47;;;;;;;3.38;0.98;;;4.40;99.90;;;;;;5071256;28;20106;-49
2023/12/23 11:14:16;;;;;;;2.22;0.70;;;7.80;99.90;;;;;;5072704;28;20041;-46
2023/12/23 11:16:44;;;;;;;2.83;0.93;;;7.80;99.90;;;;;;5072598;28;20047;-50
2023/12/23 11:19:11;;;;;;;2.25;0.80;;;3.90;99.90;;;;;;5072371;28;20492;-51
2023/12/23 11:21:36;;;;;;;1.95;0.68;;;6.80;99.90;;;;;;5072329;28;20562;-49
2023/12/23 11:24:02;;;;;;;3.20;0.60;;;5.60;99.90;;;;;;5072084;28;20091;-46
2023/12/23 11:26:37;;;;;;;2.72;0.80;;;3.50;99.90;;;;;;5072078;28;20508;-48
2023/12/23 11:29:18;;;;;;;2.45;0.80;;;6.80;99.90;;;;;;5065431;28;20028;-49
2023/12/23 11:31:44;;;;;;;2.30;0.85;;;7.70;99.90;;;;;;5060998;28;20444;-46
2023/12/23 11:34:17;;;;;;;2.35;0.70;;;3.70;99.90;;;;;;5061909;28;20032;-46
2023/12/23 11:36:45;;;;;;;2.80;0.90;;;7.90;99.90;;;;;;5062836;28;20036;-47
2023/12/23 11:39:12;;;;;;;1.48;0.60;;;5.70;99.90;;;;;;5060234;28;20049;-46
2023/12/23 11:41:40;;;;;;;1.48;0.60;;;3.80;99.90;;;;;;5061095;28;20048;-46
2023/12/23 11:44:07;;;;;;;1.38;0.52;;;5.10;99.90;;;;;;5067259;28;20063;-46
2023/12/23 11:46:34;;;;;;;1.48;0.60;;;8.00;99.90;;;;;;5061410;28;20052;-47
2023/12/23 11:49:00;;;;;;;1.13;0.55;;;6.60;99.90;;;;;;5032690;28;20183;-49
2023/12/23 11:51:26;;;;;;;2.90;0.80;;;7.30;99.90;;;;;;5062981;28;20546;-45
2023/12/23 11:53:53;;;;;;;1.38;0.60;;;7.70;99.90;;;;;;5061969;28;20075;-46
2023/12/23 11:56:19;;;;;;;1.98;0.60;;;4.10;99.90;;;;;;5062259;28;20508;-46
2023/12/23 11:58:45;;;;;;;1.92;0.60;;;3.90;99.90;;;;;;5062671;28;20036;-45
2023/12/23 12:01:11;;;;;;;1.77;0.70;;;7.50;99.90;;;;;;5071989;28;20123;-45
2023/12/23 12:03:37;;;;;;;1.85;0.70;;;7.60;99.90;;;;;;5071115;28;20064;-46
2023/12/23 12:06:03;;;;;;;2.65;0.65;;;3.90;99.90;;;;;;5071919;28;20045;-45
2023/12/23 12:08:28;;;;;;;1.98;0.70;;;3.90;99.90;;;;;;5053881;28;20039;-46
2023/12/23 12:10:56;;;;;;;1.67;0.60;;;4.00;99.90;;;;;;5071864;28;20523;-45
2023/12/23 12:13:28;;;;;;;1.98;0.70;;;4.70;99.90;;;;;;5072044;28;20051;-46
2023/12/23 12:15:54;;;;;;;1.70;0.60;;;4.30;99.90;;;;;;5060534;28;20509;-46
2023/12/23 12:18:20;;;;;;;0.82;0.50;;;7.20;99.90;;;;;;5061403;28;20045;-46
2023/12/23 12:20:46;;;;;;;1.00;0.60;;;6.20;99.90;;;;;;5062223;28;20455;-47
2023/12/23 12:23:15;;;;;;;1.00;0.50;;;6.10;99.90;;;;;;5060197;28;20036;-46
2023/12/23 12:25:50;;;;;;;0.82;0.45;;;3.90;99.90;;;;;;5061230;28;20072;-48
2023/12/23 12:28:16;;;;;;;0.90;0.50;;;8.00;99.90;;;;;;5061099;28;20587;-45
2023/12/23 12:30:44;;;;;;;2.22;0.77;;;4.00;99.90;;;;;;5060991;28;20039;-46
2023/12/23 12:33:09;;;;;;;1.55;0.70;;;7.90;99.90;;;;;;5062035;28;20032;-48
2023/12/23 12:35:36;;;;;;;2.65;0.80;;;7.20;99.90;;;;;;5059517;28;20044;-52
2023/12/23 12:38:02;;;;;;;2.40;0.77;;;8.00;99.90;;;;;;5061414;28;20037;-51
2023/12/23 12:40:34;;;;;;;2.47;0.82;;;4.00;99.90;;;;;;5062590;28;20078;-48
2023/12/23 12:43:05;;;;;;;2.20;0.80;;;4.60;99.90;;;;;;5060042;28;20072;-50
2023/12/23 12:45:38;;;;;;;2.88;0.98;;;7.50;99.90;;;;;;5059854;28;20072;-50
2023/12/23 12:48:10;;;;;;;;;;;7.80;99.90;;;;;;5061046;28;20051;-51
2023/12/23 12:50:38;;;;;;;3.05;1.15;;;7.10;99.90;;;;;;5060680;28;19917;-49